Time;durP1;ratioP1;P1;durP2;ratioP2;P2;SDS_P1;SDS_P2;PMS_P1;PMS_P2;Temp;Humidity;BMP_temperature;BMP_pressure;BME280_temperature;BME280_humidity;BME280_pressure;Samples;Min_cycle;Max_cycle;Signal;HPM_P1;HPM_P2
2022/11/15 00:01:08;;;;;;;0.90;0.52;;;;;;;;;;5077657;28;20044;-63
2022/11/15 00:03:56;;;;;;;5.68;0.70;;;;;;;;;;5061849;28;20056;-65
2022/11/15 00:06:45;;;;;;;3.33;1.10;;;;;;;;;;5092570;28;20606;-63
2022/11/15 00:09:34;;;;;;;2.10;0.68;;;;;;;;;;5092801;28;20048;-64
2022/11/15 00:12:22;;;;;;;1.85;0.98;;;;;;;;;;5092436;28;20408;-63
2022/11/15 00:15:10;;;;;;;1.10;0.65;;;;;;;;;;5092356;28;20048;-63
2022/11/15 00:17:59;;;;;;;2.40;0.70;;;;;;;;;;5092412;28;20044;-63
2022/11/15 00:20:48;;;;;;;0.85;0.50;;;;;;;;;;5092219;28;20040;-63
2022/11/15 00:23:37;;;;;;;1.38;0.55;;;;;;;;;;5092424;28;20047;-63
2022/11/15 00:26:25;;;;;;;2.15;0.63;;;;;;;;;;5054903;28;20044;-65
2022/11/15 00:29:14;;;;;;;1.98;0.63;;;;;;;;;;5102634;28;20040;-64
2022/11/15 00:32:03;;;;;;;2.25;0.80;;;;;;;;;;5066069;28;20065;-63
2022/11/15 00:34:51;;;;;;;2.03;0.68;;;;;;;;;;5060790;28;20041;-64
2022/11/15 00:37:40;;;;;;;2.97;1.23;;;;;;;;;;5063749;28;20044;-64
2022/11/15 00:40:29;;;;;;;4.72;1.20;;;;;;;;;;5042893;28;20053;-67
2022/11/15 00:43:18;;;;;;;3.33;1.13;;;;;;;;;;5053725;28;20419;-64
2022/11/15 00:46:08;;;;;;;2.83;1.30;;;;;;;;;;5053189;28;20080;-63
2022/11/15 00:48:57;;;;;;;8.77;2.08;;;;;;;;;;5053742;28;20086;-63
2022/11/15 00:51:45;;;;;;;6.63;1.88;;;;;;;;;;5024952;28;20147;-63
2022/11/15 00:54:34;;;;;;;4.60;1.80;;;;;;;;;;5053789;28;20053;-63
2022/11/15 00:57:22;;;;;;;3.58;1.23;;;;;;;;;;5053315;28;20049;-63
2022/11/15 01:00:11;;;;;;;3.50;1.27;;;;;;;;;;5052864;28;20056;-64
2022/11/15 01:03:02;;;;;;;3.33;1.40;;;;;;;;;;5077279;28;20044;-63
2022/11/15 01:05:52;;;;;;;2.83;0.93;;;;;;;;;;5065606;28;20044;-63
2022/11/15 01:08:40;;;;;;;7.70;1.08;;;;;;;;;;5080894;28;20504;-65
2022/11/15 01:11:29;;;;;;;2.28;1.10;;;;;;;;;;5080297;28;20069;-63
2022/11/15 01:14:17;;;;;;;6.63;1.33;;;;;;;;;;5095607;28;20044;-63
2022/11/15 01:17:11;;;;;;;3.75;1.02;;;;;;;;;;5079628;28;20510;-63
2022/11/15 01:20:00;;;;;;;4.68;1.00;;;;;;;;;;5095687;28;20048;-63
2022/11/15 01:22:49;;;;;;;3.55;1.05;;;;;;;;;;5095261;28;20044;-63
2022/11/15 01:25:37;;;;;;;3.70;1.00;;;;;;;;;;5065035;28;20052;-64
2022/11/15 01:28:31;;;;;;;3.92;1.00;;;;;;;;;;5080457;28;20048;-64
2022/11/15 01:31:21;;;;;;;2.80;0.93;;;;;;;;;;5064935;28;20060;-63
2022/11/15 01:34:10;;;;;;;5.00;1.02;;;;;;;;;;5095244;28;20048;-64
2022/11/15 01:36:59;;;;;;;3.97;0.75;;;;;;;;;;5094799;28;20419;-63
2022/11/15 01:39:48;;;;;;;4.43;0.80;;;;;;;;;;5079745;28;20491;-63
2022/11/15 01:42:36;;;;;;;5.57;0.80;;;;;;;;;;5064461;28;20083;-65
2022/11/15 01:45:26;;;;;;;3.83;0.82;;;;;;;;;;5095112;28;20048;-63
2022/11/15 01:48:14;;;;;;;2.38;0.60;;;;;;;;;;5064188;28;20056;-63
2022/11/15 01:51:08;;;;;;;5.13;0.73;;;;;;;;;;5095333;28;20056;-63
2022/11/15 01:54:01;;;;;;;3.25;0.70;;;;;;;;;;5064996;28;20055;-65
2022/11/15 01:56:58;;;;;;;2.67;0.60;;;;;;;;;;5095004;28;20504;-67
2022/11/15 01:59:46;;;;;;;3.55;0.63;;;;;;;;;;5050489;28;20060;-63
2022/11/15 02:02:37;;;;;;;1.35;0.43;;;;;;;;;;5064965;28;20056;-63
2022/11/15 02:05:27;;;;;;;2.35;0.80;;;;;;;;;;5094726;28;20412;-64
2022/11/15 02:08:19;;;;;;;3.40;0.60;;;;;;;;;;5094528;28;20044;-64
2022/11/15 02:11:11;;;;;;;1.92;0.68;;;;;;;;;;5094435;28;20052;-64
2022/11/15 02:14:02;;;;;;;1.02;0.45;;;;;;;;;;5064252;28;20052;-64
2022/11/15 02:17:10;;;;;;;2.53;0.65;;;;;;;;;;5094434;28;20060;-63
2022/11/15 02:20:05;;;;;;;0.77;0.40;;;;;;;;;;5094415;28;20052;-64
2022/11/15 02:23:18;;;;;;;0.80;0.45;;;;;;;;;;5094340;28;20044;-64
2022/11/15 02:26:15;;;;;;;0.85;0.45;;;;;;;;;;5094276;28;20044;-64
2022/11/15 02:29:37;;;;;;;2.20;0.80;;;;;;;;;;5094368;28;20699;-63
2022/11/15 02:32:45;;;;;;;2.55;0.47;;;;;;;;;;5031427;28;20057;-63
2022/11/15 02:36:00;;;;;;;1.20;0.55;;;;;;;;;;5031628;28;20053;-63
2022/11/15 02:38:57;;;;;;;3.90;0.68;;;;;;;;;;5011661;28;20054;-63
2022/11/15 02:42:01;;;;;;;1.50;0.50;;;;;;;;;;5011613;28;20063;-63
2022/11/15 02:44:51;;;;;;;4.30;0.50;;;;;;;;;;4983553;28;20049;-63
2022/11/15 02:47:44;;;;;;;2.03;0.50;;;;;;;;;;4970597;28;20050;-64
2022/11/15 02:50:33;;;;;;;1.17;0.50;;;;;;;;;;4983865;28;20050;-63
2022/11/15 02:53:26;;;;;;;1.42;0.60;;;;;;;;;;5011669;28;20050;-63
2022/11/15 02:56:15;;;;;;;0.95;0.47;;;;;;;;;;5011609;28;20058;-63
2022/11/15 03:00:01;;;;;;;1.40;0.50;;;;;;;;;;4997389;28;20078;-63
2022/11/15 03:02:55;;;;;;;5.22;0.70;;;;;;;;;;4837757;29;20061;-63
2022/11/15 03:06:30;;;;;;;1.95;0.73;;;;;;;;;;4877377;29;20071;-64
2022/11/15 03:09:34;;;;;;;4.00;0.70;;;;;;;;;;4850926;29;20053;-64
2022/11/15 03:12:40;;;;;;;1.35;0.55;;;;;;;;;;4858789;29;20061;-64
2022/11/15 03:15:37;;;;;;;2.00;0.43;;;;;;;;;;4862858;29;20065;-63
2022/11/15 03:18:42;;;;;;;1.33;0.63;;;;;;;;;;4877150;29;20497;-63
2022/11/15 03:21:33;;;;;;;3.90;0.63;;;;;;;;;;4877101;29;20053;-63
2022/11/15 03:24:24;;;;;;;1.20;0.50;;;;;;;;;;4864255;29;20061;-63
2022/11/15 03:27:17;;;;;;;6.18;0.80;;;;;;;;;;4877015;29;20433;-63
2022/11/15 03:30:09;;;;;;;1.70;0.50;;;;;;;;;;4876625;29;20057;-64
2022/11/15 03:33:00;;;;;;;1.13;0.70;;;;;;;;;;4876556;29;20064;-63
2022/11/15 03:35:50;;;;;;;2.05;0.50;;;;;;;;;;4888758;29;20051;-63
2022/11/15 03:38:39;;;;;;;0.70;0.57;;;;;;;;;;4918153;28;20063;-64
2022/11/15 03:42:00;;;;;;;4.00;0.40;;;;;;;;;;5030775;28;20045;-63
2022/11/15 03:45:19;;;;;;;0.88;0.40;;;;;;;;;;5023125;28;20053;-63
2022/11/15 03:48:19;;;;;;;1.65;0.50;;;;;;;;;;5050397;28;20053;-63
2022/11/15 03:51:08;;;;;;;1.13;0.60;;;;;;;;;;5021807;28;20065;-66
2022/11/15 03:53:57;;;;;;;2.83;0.43;;;;;;;;;;5022035;28;20057;-63
2022/11/15 03:56:45;;;;;;;2.13;0.68;;;;;;;;;;5022244;28;20505;-65
2022/11/15 03:59:33;;;;;;;1.38;0.73;;;;;;;;;;5050161;28;20048;-64
2022/11/15 04:02:22;;;;;;;3.83;0.50;;;;;;;;;;5050100;28;20504;-64
2022/11/15 04:05:11;;;;;;;6.00;0.93;;;;;;;;;;5036156;28;20064;-63
2022/11/15 04:07:59;;;;;;;3.05;0.60;;;;;;;;;;5049821;28;20041;-64
2022/11/15 04:10:50;;;;;;;2.63;0.52;;;;;;;;;;5049289;28;20547;-64
2022/11/15 04:13:38;;;;;;;1.20;0.45;;;;;;;;;;5035868;28;20049;-64
2022/11/15 04:16:26;;;;;;;1.55;0.60;;;;;;;;;;5049461;28;20068;-64
2022/11/15 04:25:29;;;;;;;0.90;0.60;;;;;;;;;;5092266;28;20044;-64
2022/11/15 04:28:19;;;;;;;2.08;0.90;;;;;;;;;;5091648;28;20048;-65
2022/11/15 04:31:08;;;;;;;5.57;0.90;;;;;;;;;;5092502;28;20407;-65
2022/11/15 04:33:56;;;;;;;5.32;0.93;;;;;;;;;;5048268;28;20041;-65
2022/11/15 04:39:52;;;;;;;1.75;0.70;;;;;;;;;;5092140;28;20044;-64
2022/11/15 04:42:44;;;;;;;3.85;0.55;;;;;;;;;;5077244;28;20052;-65
2022/11/15 04:45:32;;;;;;;5.85;0.90;;;;;;;;;;5047824;28;20060;-64
2022/11/15 04:48:21;;;;;;;2.95;0.60;;;;;;;;;;5091998;28;20500;-64
2022/11/15 04:51:09;;;;;;;1.48;0.60;;;;;;;;;;5092026;28;20048;-65
2022/11/15 04:53:58;;;;;;;3.65;0.50;;;;;;;;;;5092200;28;20044;-64
2022/11/15 04:56:47;;;;;;;2.08;0.80;;;;;;;;;;5092244;28;20399;-64
2022/11/15 04:59:36;;;;;;;2.50;0.70;;;;;;;;;;5075645;28;20056;-65
2022/11/15 05:04:18;;;;;;;2.63;0.90;;;;;;;;;;5048304;28;20051;-64
2022/11/15 05:05:32;;;;;;;2.20;0.80;;;;;;;;;;5092231;28;20040;-65
2022/11/15 05:08:21;;;;;;;1.45;0.55;;;;;;;;;;5091890;28;20048;-64
2022/11/15 05:11:10;;;;;;;1.40;0.63;;;;;;;;;;5091849;28;20052;-64
2022/11/15 05:13:58;;;;;;;2.22;0.77;;;;;;;;;;5047922;28;20056;-64
2022/11/15 05:16:46;;;;;;;1.98;0.80;;;;;;;;;;5068861;28;20052;-65
2022/11/15 05:19:35;;;;;;;3.45;0.70;;;;;;;;;;5069401;28;20053;-65
2022/11/15 05:22:24;;;;;;;1.20;0.55;;;;;;;;;;5072886;28;20496;-65
2022/11/15 05:25:12;;;;;;;2.42;1.15;;;;;;;;;;5072806;28;20456;-65
2022/11/15 05:28:00;;;;;;;2.28;0.60;;;;;;;;;;5052692;28;20044;-65
2022/11/15 05:30:49;;;;;;;2.20;0.80;;;;;;;;;;5052509;28;20053;-65
2022/11/15 05:33:39;;;;;;;4.15;1.08;;;;;;;;;;5052521;28;20516;-65
2022/11/15 05:36:33;;;;;;;4.10;2.75;;;;;;;;;;5038978;28;20057;-65
2022/11/15 05:39:21;;;;;;;2.47;1.13;;;;;;;;;;5052270;28;20057;-64
2022/11/15 05:42:13;;;;;;;2.55;0.95;;;;;;;;;;5038728;28;20069;-65
2022/11/15 05:45:06;;;;;;;3.03;0.77;;;;;;;;;;5052473;28;20048;-65
2022/11/15 05:47:57;;;;;;;2.05;0.90;;;;;;;;;;5052531;28;20049;-65
2022/11/15 05:50:47;;;;;;;2.72;1.13;;;;;;;;;;5052545;28;20056;-65
2022/11/15 05:53:37;;;;;;;11.13;1.10;;;;;;;;;;5052195;28;20045;-65
2022/11/15 05:56:27;;;;;;;2.03;0.82;;;;;;;;;;5052679;28;20487;-64
2022/11/15 05:59:15;;;;;;;2.50;0.90;;;;;;;;;;5023980;28;20049;-65
2022/11/15 06:02:04;;;;;;;2.97;0.65;;;;;;;;;;5051903;28;20049;-66
2022/11/15 06:04:52;;;;;;;4.97;0.70;;;;;;;;;;5065759;28;20056;-65
2022/11/15 06:07:41;;;;;;;4.45;1.13;;;;;;;;;;5079605;28;20411;-65
2022/11/15 06:10:29;;;;;;;5.60;1.33;;;;;;;;;;5094407;28;20044;-65
2022/11/15 06:13:18;;;;;;;3.95;1.13;;;;;;;;;;5094685;28;20411;-66
2022/11/15 06:16:07;;;;;;;1.90;0.63;;;;;;;;;;5094791;28;20052;-65
2022/11/15 06:18:56;;;;;;;1.67;0.98;;;;;;;;;;5063788;28;20415;-65
2022/11/15 06:21:44;;;;;;;2.70;0.63;;;;;;;;;;5050551;28;20052;-65
2022/11/15 06:24:32;;;;;;;5.20;0.88;;;;;;;;;;5063852;28;20052;-65
2022/11/15 06:27:21;;;;;;;3.13;0.90;;;;;;;;;;5094302;28;20048;-65
2022/11/15 06:30:10;;;;;;;1.75;0.70;;;;;;;;;;5063939;28;20503;-65
2022/11/15 06:33:03;;;;;;;3.60;0.80;;;;;;;;;;5093692;28;20495;-65
2022/11/15 06:35:52;;;;;;;2.22;0.73;;;;;;;;;;5094286;28;20044;-64
2022/11/15 06:38:40;;;;;;;2.65;0.82;;;;;;;;;;5094306;28;20047;-65
2022/11/15 06:41:29;;;;;;;4.63;0.98;;;;;;;;;;5079137;28;20044;-64
2022/11/15 06:44:18;;;;;;;3.95;0.82;;;;;;;;;;5094024;28;20434;-65
2022/11/15 06:47:06;;;;;;;2.33;0.75;;;;;;;;;;5093995;28;20052;-65
2022/11/15 06:49:55;;;;;;;1.58;0.60;;;;;;;;;;5093996;28;20044;-65
2022/11/15 06:52:44;;;;;;;3.42;1.10;;;;;;;;;;5093824;28;20048;-64
2022/11/15 06:55:32;;;;;;;3.03;0.73;;;;;;;;;;5049487;28;20052;-66
2022/11/15 06:58:22;;;;;;;1.30;0.50;;;;;;;;;;5093750;28;20044;-64
2022/11/15 07:01:12;;;;;;;2.90;0.68;;;;;;;;;;5093340;28;20048;-65
2022/11/15 07:04:01;;;;;;;1.13;0.80;;;;;;;;;;5093708;28;20056;-65
2022/11/15 07:06:49;;;;;;;1.80;0.70;;;;;;;;;;5093590;28;20055;-65
2022/11/15 07:09:38;;;;;;;1.98;0.65;;;;;;;;;;5078511;28;20045;-65
2022/11/15 07:12:26;;;;;;;2.17;0.90;;;;;;;;;;5093839;28;20496;-64
2022/11/15 07:15:16;;;;;;;1.13;0.60;;;;;;;;;;5093593;28;20036;-65
2022/11/15 07:18:05;;;;;;;2.92;0.98;;;;;;;;;;5093293;28;20047;-65
2022/11/15 07:20:53;;;;;;;1.60;1.08;;;;;;;;;;5077399;28;20415;-66
2022/11/15 07:23:41;;;;;;;2.33;0.77;;;;;;;;;;5077689;28;20048;-65
2022/11/15 07:26:30;;;;;;;1.85;0.70;;;;;;;;;;5093111;28;20051;-64
2022/11/15 07:29:19;;;;;;;2.25;0.90;;;;;;;;;;5093207;28;20048;-64
2022/11/15 07:32:07;;;;;;;2.75;0.60;;;;;;;;;;5093028;28;20500;-64
2022/11/15 07:34:55;;;;;;;2.95;0.80;;;;;;;;;;5092947;28;20044;-64
2022/11/15 07:37:44;;;;;;;2.08;0.80;;;;;;;;;;5093272;28;20048;-64
2022/11/15 07:40:33;;;;;;;1.95;0.70;;;;;;;;;;5093342;28;20043;-64
2022/11/15 07:43:21;;;;;;;1.05;0.60;;;;;;;;;;5062672;28;20055;-64
2022/11/15 07:46:10;;;;;;;0.57;0.40;;;;;;;;;;5092620;28;20046;-64
2022/11/15 07:48:59;;;;;;;3.97;0.52;;;;;;;;;;5048405;28;20052;-65
2022/11/15 07:51:47;;;;;;;1.58;0.70;;;;;;;;;;5048598;28;20056;-64
2022/11/15 07:54:36;;;;;;;1.65;0.55;;;;;;;;;;5092824;28;20047;-65
2022/11/15 07:57:24;;;;;;;1.33;0.50;;;;;;;;;;5092860;28;20052;-66
2022/11/15 08:00:14;;;;;;;1.92;0.65;;;;;;;;;;5092588;28;20499;-64
2022/11/15 08:03:10;;;;;;;1.60;0.63;;;;;;;;;;5092225;28;20503;-65
2022/11/15 08:05:59;;;;;;;5.30;0.70;;;;;;;;;;5092648;28;20044;-64
2022/11/15 08:08:47;;;;;;;4.18;0.98;;;;;;;;;;5092433;28;20048;-65
2022/11/15 08:11:37;;;;;;;5.70;0.82;;;;;;;;;;5077698;28;20044;-64
2022/11/15 08:14:25;;;;;;;3.20;0.60;;;;;;;;;;5047800;28;20507;-64
2022/11/15 08:17:14;;;;;;;2.72;1.15;;;;;;;;;;5092392;28;20052;-64
2022/11/15 08:20:03;;;;;;;2.33;0.90;;;;;;;;;;5034773;28;20052;-65
2022/11/15 08:22:51;;;;;;;1.15;0.55;;;;;;;;;;5062288;28;20515;-64
2022/11/15 08:25:40;;;;;;;3.08;0.93;;;;;;;;;;5092309;28;20048;-64
2022/11/15 08:28:30;;;;;;;1.98;0.80;;;;;;;;;;5092223;28;20044;-65
2022/11/15 08:31:19;;;;;;;1.75;0.60;;;;;;;;;;5092273;28;20044;-65
2022/11/15 08:34:08;;;;;;;2.15;0.73;;;;;;;;;;5092057;28;20040;-64
2022/11/15 08:36:56;;;;;;;1.88;0.88;;;;;;;;;;5048004;28;20052;-65
2022/11/15 08:39:44;;;;;;;1.35;0.73;;;;;;;;;;5092343;28;20048;-65
2022/11/15 08:42:33;;;;;;;2.63;0.85;;;;;;;;;;5091919;28;20049;-65
2022/11/15 08:45:22;;;;;;;1.55;0.60;;;;;;;;;;5049534;28;20056;-65
2022/11/15 08:48:10;;;;;;;3.40;0.80;;;;;;;;;;5035235;28;20045;-65
2022/11/15 08:51:17;;;;;;;1.85;0.80;;;;;;;;;;5035735;28;20057;-64
2022/11/15 08:54:06;;;;;;;3.15;0.90;;;;;;;;;;5049407;28;20501;-64
2022/11/15 08:56:55;;;;;;;5.88;1.00;;;;;;;;;;5038849;28;20049;-65
2022/11/15 08:59:43;;;;;;;2.10;0.95;;;;;;;;;;5024975;28;20053;-65
2022/11/15 09:02:32;;;;;;;2.67;0.90;;;;;;;;;;5053438;28;20049;-65
2022/11/15 09:05:20;;;;;;;2.30;0.90;;;;;;;;;;5053219;28;20049;-65
2022/11/15 09:08:09;;;;;;;2.05;0.90;;;;;;;;;;5053236;28;20045;-65
2022/11/15 09:11:19;;;;;;;3.88;1.00;;;;;;;;;;5053379;28;20065;-64
2022/11/15 09:14:10;;;;;;;;;;;;;;;;;;5053672;28;20124;-65
2022/11/15 09:16:58;;;;;;;3.97;0.80;;;;;;;;;;5039839;28;19921;-65
2022/11/15 09:19:47;;;;;;;4.00;1.17;;;;;;;;;;5053186;28;20409;-65
2022/11/15 09:22:36;;;;;;;4.68;1.83;;;;;;;;;;5058568;28;20451;-64
2022/11/15 09:25:25;;;;;;;9.88;4.72;;;;;;;;;;5095613;28;20515;-64
2022/11/15 09:28:13;;;;;;;7.05;2.85;;;;;;;;;;5050940;28;20052;-66
2022/11/15 09:31:05;;;;;;;4.53;1.13;;;;;;;;;;5095444;28;20055;-64
2022/11/15 09:33:53;;;;;;;;;;;;;;;;;;5065498;28;20056;-64
2022/11/15 09:36:41;;;;;;;1.95;0.80;;;;;;;;;;5095304;28;19919;-64
2022/11/15 09:39:30;;;;;;;4.75;0.98;;;;;;;;;;5095514;28;20048;-65
2022/11/15 09:42:44;;;;;;;4.68;0.88;;;;;;;;;;5051545;28;20060;-63
2022/11/15 09:45:58;;;;;;;3.83;0.95;;;;;;;;;;5095268;28;20044;-65
2022/11/15 09:48:59;;;;;;;2.25;0.98;;;;;;;;;;5012238;28;20054;-63
2022/11/15 09:51:53;;;;;;;3.47;1.10;;;;;;;;;;4992543;28;20046;-64
2022/11/15 09:54:41;;;;;;;4.13;1.40;;;;;;;;;;4992621;28;20062;-64
2022/11/15 09:57:35;;;;;;;2.70;1.27;;;;;;;;;;4976349;28;20106;-63
2022/11/15 10:00:25;;;;;;;6.25;1.40;;;;;;;;;;5012143;28;20072;-63
2022/11/15 10:03:37;;;;;;;2.90;1.00;;;;;;;;;;5012119;28;20058;-63
2022/11/15 10:06:18;;;;;;;2.55;0.95;;;;;;;;;;5012111;28;20054;-64
2022/11/15 10:08:58;;;;;;;3.25;1.33;;;;;;;;;;4991297;28;20549;-65
2022/11/15 10:11:33;;;;;;;4.45;1.52;;;;;;;;;;4992126;28;20051;-63
2022/11/15 10:14:18;;;;;;;2.20;1.00;;;;;;;;;;4992514;28;20058;-64
2022/11/15 10:17:06;;;;;;;2.92;1.50;;;;;;;;;;4992334;28;20065;-64
2022/11/15 10:19:57;;;;;;;2.42;1.25;;;;;;;;;;4992120;28;20054;-63
2022/11/15 10:23:02;;;;;;;2.60;1.23;;;;;;;;;;4986106;28;20051;-64
2022/11/15 10:25:34;;;;;;;4.88;1.30;;;;;;;;;;4935424;29;20074;-64
2022/11/15 10:28:30;;;;;;;2.63;1.45;;;;;;;;;;4953216;28;20059;-62
2022/11/15 10:31:01;;;;;;;2.67;1.23;;;;;;;;;;4953324;29;20047;-63
2022/11/15 10:33:38;;;;;;;3.10;0.80;;;;;;;;;;4933910;29;20052;-63
2022/11/15 10:36:14;;;;;;;3.50;1.13;;;;;;;;;;4934170;29;20532;-63
2022/11/15 10:38:51;;;;;;;1.50;0.90;;;;;;;;;;4951305;29;20059;-63
2022/11/15 10:41:34;;;;;;;2.65;1.17;;;;;;;;;;4953172;29;20047;-63
2022/11/15 10:44:19;;;;;;;3.05;1.40;;;;;;;;;;4953031;29;20059;-62
2022/11/15 10:46:55;;;;;;;3.05;1.10;;;;;;;;;;4958711;28;20065;-63
2022/11/15 10:49:31;;;;;;;2.42;1.23;;;;;;;;;;4972154;28;20062;-63
2022/11/15 10:52:01;;;;;;;4.60;0.90;;;;;;;;;;4940027;28;20459;-62
2022/11/15 10:54:43;;;;;;;3.38;1.23;;;;;;;;;;4939811;28;20410;-63
2022/11/15 10:57:28;;;;;;;1.90;0.73;;;;;;;;;;4972083;28;20054;-63
2022/11/15 11:00:03;;;;;;;4.32;0.70;;;;;;;;;;4971930;28;20066;-63
2022/11/15 11:02:38;;;;;;;2.17;0.90;;;;;;;;;;4993938;28;20069;-63
2022/11/15 11:05:36;;;;;;;1.95;0.80;;;;;;;;;;5024450;28;20465;-62
2022/11/15 11:08:16;;;;;;;1.23;0.63;;;;;;;;;;5030543;28;20057;-62
2022/11/15 11:10:58;;;;;;;2.53;1.20;;;;;;;;;;5030321;28;20056;-63
2022/11/15 11:13:34;;;;;;;1.48;0.80;;;;;;;;;;5030519;28;20049;-62
2022/11/15 11:16:23;;;;;;;1.00;0.75;;;;;;;;;;5013984;28;20417;-63
2022/11/15 11:18:59;;;;;;;1.73;0.80;;;;;;;;;;4997274;28;20628;-64
2022/11/15 11:21:44;;;;;;;1.55;0.60;;;;;;;;;;5013698;28;20537;-64
2022/11/15 11:24:32;;;;;;;1.23;0.70;;;;;;;;;;5047621;28;20052;-63
2022/11/15 11:27:23;;;;;;;1.17;0.60;;;;;;;;;;5069954;28;20060;-63
2022/11/15 11:30:17;;;;;;;3.75;0.80;;;;;;;;;;5069998;28;20040;-63
2022/11/15 11:33:21;;;;;;;2.13;0.50;;;;;;;;;;5020447;28;20059;-63
2022/11/15 11:36:11;;;;;;;1.27;0.50;;;;;;;;;;5029824;28;20053;-63
2022/11/15 11:38:57;;;;;;;2.67;0.63;;;;;;;;;;4958330;28;20054;-63
2022/11/15 11:41:39;;;;;;;1.83;0.63;;;;;;;;;;4971076;28;20054;-63
2022/11/15 11:44:16;;;;;;;1.40;0.50;;;;;;;;;;4923771;28;20066;-62
2022/11/15 11:47:00;;;;;;;1.60;0.50;;;;;;;;;;4971217;28;20415;-63
2022/11/15 11:49:34;;;;;;;1.52;0.60;;;;;;;;;;4971304;28;20522;-63
2022/11/15 11:52:47;;;;;;;0.70;0.40;;;;;;;;;;4971163;28;20061;-63
2022/11/15 11:55:23;;;;;;;1.00;0.50;;;;;;;;;;4920049;29;20055;-63
2022/11/15 11:58:13;;;;;;;1.05;0.60;;;;;;;;;;4951611;29;20439;-65
2022/11/15 12:01:09;;;;;;;1.35;0.70;;;;;;;;;;4916575;29;20060;-65
2022/11/15 12:04:17;;;;;;;0.90;0.70;;;;;;;;;;4932539;29;20066;-63
2022/11/15 12:07:13;;;;;;;1.15;0.57;;;;;;;;;;4932224;29;20051;-63
2022/11/15 12:10:06;;;;;;;3.83;0.55;;;;;;;;;;4916269;29;20059;-63
2022/11/15 12:12:55;;;;;;;0.60;0.40;;;;;;;;;;4862581;29;20052;-62
2022/11/15 12:15:36;;;;;;;1.10;0.77;;;;;;;;;;4899993;29;20048;-64
2022/11/15 12:18:13;;;;;;;2.22;0.65;;;;;;;;;;4912799;29;20071;-65
2022/11/15 12:21:14;;;;;;;0.93;0.50;;;;;;;;;;4913573;29;20060;-64
2022/11/15 12:23:53;;;;;;;1.20;0.57;;;;;;;;;;4913168;29;20063;-64
2022/11/15 12:26:29;;;;;;;1.42;0.68;;;;;;;;;;4913089;29;20063;-64
2022/11/15 12:29:25;;;;;;;1.80;0.57;;;;;;;;;;4913309;29;20048;-63
2022/11/15 12:31:59;;;;;;;2.28;0.60;;;;;;;;;;4899040;29;20060;-64
2022/11/15 12:34:42;;;;;;;1.67;0.70;;;;;;;;;;4912927;29;20537;-64
2022/11/15 12:37:37;;;;;;;1.88;0.50;;;;;;;;;;4881649;29;20060;-63
2022/11/15 12:40:22;;;;;;;0.93;0.70;;;;;;;;;;4913049;29;20071;-63
2022/11/15 12:43:24;;;;;;;1.10;0.60;;;;;;;;;;4913063;29;20067;-64
2022/11/15 12:45:55;;;;;;;1.10;0.60;;;;;;;;;;4915559;29;20463;-62
2022/11/15 12:48:37;;;;;;;0.88;0.52;;;;;;;;;;4900467;29;20401;-63
2022/11/15 12:51:08;;;;;;;3.53;0.60;;;;;;;;;;5009600;28;20046;-62
2022/11/15 12:53:38;;;;;;;0.60;0.50;;;;;;;;;;5009584;28;20050;-62
2022/11/15 12:56:17;;;;;;;5.75;2.10;;;;;;;;;;5009316;28;20062;-63
2022/11/15 12:59:02;;;;;;;3.70;2.92;;;;;;;;;;4960890;28;20457;-62
2022/11/15 13:01:33;;;;;;;3.58;1.20;;;;;;;;;;4976902;28;20065;-63
2022/11/15 13:04:18;;;;;;;;;;;;;;;;;;5010029;28;20093;-63
2022/11/15 13:06:53;;;;;;;1.23;0.45;;;;;;;;;;5009448;28;19928;-62
2022/11/15 13:09:36;;;;;;;1.40;0.70;;;;;;;;;;5058281;28;20056;-63
2022/11/15 13:12:14;;;;;;;1.88;0.65;;;;;;;;;;5091615;28;20044;-64
2022/11/15 13:14:54;;;;;;;1.52;0.77;;;;;;;;;;5055961;28;20055;-63
2022/11/15 13:17:26;;;;;;;0.90;0.60;;;;;;;;;;5091452;28;20048;-64
2022/11/15 13:20:07;;;;;;;2.47;0.50;;;;;;;;;;5107921;28;20040;-64
2022/11/15 13:22:52;;;;;;;1.40;0.60;;;;;;;;;;5107349;28;20039;-63
2022/11/15 13:25:28;;;;;;;3.22;0.52;;;;;;;;;;5091440;28;20044;-63
2022/11/15 13:27:58;;;;;;;0.88;0.55;;;;;;;;;;5051844;28;20048;-66
2022/11/15 13:30:37;;;;;;;2.42;0.43;;;;;;;;;;5048565;28;20428;-64
2022/11/15 13:33:37;;;;;;;1.15;0.70;;;;;;;;;;5028647;28;20057;-64
2022/11/15 13:36:15;;;;;;;1.85;0.88;;;;;;;;;;4912350;29;20053;-65
2022/11/15 13:38:54;;;;;;;1.40;0.70;;;;;;;;;;4893652;29;20045;-66
2022/11/15 13:41:27;;;;;;;1.20;0.60;;;;;;;;;;4893839;29;20576;-65
2022/11/15 13:43:59;;;;;;;1.10;0.52;;;;;;;;;;4896556;29;20061;-66
2022/11/15 13:46:35;;;;;;;1.98;0.60;;;;;;;;;;4865897;29;20076;-64
2022/11/15 13:49:12;;;;;;;1.10;0.60;;;;;;;;;;4868926;29;20052;-64
2022/11/15 13:51:54;;;;;;;1.10;0.50;;;;;;;;;;4915802;29;20075;-63
2022/11/15 13:54:44;;;;;;;0.98;0.50;;;;;;;;;;4915814;29;20056;-64
2022/11/15 13:57:21;;;;;;;2.15;0.52;;;;;;;;;;4883813;29;20044;-64
2022/11/15 14:00:17;;;;;;;2.97;0.60;;;;;;;;;;4896590;29;20048;-62
2022/11/15 14:02:47;;;;;;;2.75;0.80;;;;;;;;;;4849063;29;20080;-62
2022/11/15 14:05:22;;;;;;;1.00;0.73;;;;;;;;;;4889629;29;20418;-63
2022/11/15 14:08:04;;;;;;;0.52;0.50;;;;;;;;;;4870013;29;20087;-63
2022/11/15 14:10:37;;;;;;;8.20;5.32;;;;;;;;;;4880451;29;20067;-63
2022/11/15 14:13:30;;;;;;;1.63;0.50;;;;;;;;;;4918469;29;20055;-64
2022/11/15 14:16:21;;;;;;;0.98;0.57;;;;;;;;;;4972988;28;20058;-63
2022/11/15 14:18:53;;;;;;;0.80;0.40;;;;;;;;;;4972968;28;20059;-63
2022/11/15 14:21:23;;;;;;;1.30;1.20;;;;;;;;;;4972918;28;20630;-62
2022/11/15 14:23:53;;;;;;;0.80;0.40;;;;;;;;;;4949116;28;21474;-63
2022/11/15 14:26:32;;;;;;;1.40;0.57;;;;;;;;;;4936227;28;20055;-64
2022/11/15 14:29:32;;;;;;;2.25;0.60;;;;;;;;;;4958149;28;20396;-63
2022/11/15 14:32:50;;;;;;;1.20;0.40;;;;;;;;;;4947334;28;20051;-62
2022/11/15 14:35:22;;;;;;;0.80;0.30;;;;;;;;;;4895137;29;20067;-62
2022/11/15 14:37:53;;;;;;;0.75;0.43;;;;;;;;;;4910217;29;20056;-62
2022/11/15 14:40:23;;;;;;;1.38;0.60;;;;;;;;;;4918017;29;20060;-62
2022/11/15 14:42:53;;;;;;;1.63;0.65;;;;;;;;;;4928793;29;20075;-64
2022/11/15 14:45:23;;;;;;;1.10;0.60;;;;;;;;;;4912605;29;20063;-62
2022/11/15 14:47:53;;;;;;;1.67;0.40;;;;;;;;;;4912272;29;20505;-63
2022/11/15 14:50:24;;;;;;;0.50;0.30;;;;;;;;;;4913731;29;20052;-63
2022/11/15 14:52:53;;;;;;;1.73;0.43;;;;;;;;;;4905817;29;20093;-64
2022/11/15 14:55:31;;;;;;;3.03;0.80;;;;;;;;;;4910820;29;20460;-64
2022/11/15 14:58:03;;;;;;;1.00;0.50;;;;;;;;;;4895381;29;20064;-62
2022/11/15 15:00:34;;;;;;;0.47;0.32;;;;;;;;;;4895480;29;20061;-63
2022/11/15 15:03:05;;;;;;;0.90;0.30;;;;;;;;;;4854606;29;20446;-63
2022/11/15 15:05:43;;;;;;;1.45;0.45;;;;;;;;;;4874940;29;20060;-64
2022/11/15 15:08:14;;;;;;;0.40;0.30;;;;;;;;;;4880810;29;20060;-62
2022/11/15 15:10:46;;;;;;;0.95;0.40;;;;;;;;;;4895556;28;20043;-63
2022/11/15 15:13:24;;;;;;;0.88;0.50;;;;;;;;;;4971689;28;20062;-64
2022/11/15 15:15:54;;;;;;;0.43;0.30;;;;;;;;;;4969954;28;20059;-63
2022/11/15 15:18:24;;;;;;;0.50;0.43;;;;;;;;;;4936386;28;20100;-63
2022/11/15 15:21:02;;;;;;;0.90;0.50;;;;;;;;;;4970276;28;20521;-62
2022/11/15 15:23:33;;;;;;;1.95;0.80;;;;;;;;;;5002266;28;20049;-64
2022/11/15 15:26:03;;;;;;;0.73;0.50;;;;;;;;;;4992300;28;20053;-62
2022/11/15 15:28:34;;;;;;;0.60;0.40;;;;;;;;;;5029940;28;20057;-63
2022/11/15 15:31:06;;;;;;;1.48;0.30;;;;;;;;;;5013967;28;20060;-63
2022/11/15 15:33:36;;;;;;;0.40;0.32;;;;;;;;;;4995353;28;20151;-64
2022/11/15 15:36:11;;;;;;;1.25;0.30;;;;;;;;;;5010199;28;20057;-62
2022/11/15 15:38:41;;;;;;;1.65;0.30;;;;;;;;;;5010488;28;20050;-63
2022/11/15 15:41:12;;;;;;;0.63;0.40;;;;;;;;;;5010092;28;20065;-62
2022/11/15 15:43:43;;;;;;;0.28;0.20;;;;;;;;;;5036043;28;20075;-63
2022/11/15 15:46:18;;;;;;;0.90;0.50;;;;;;;;;;5049825;28;20452;-63
2022/11/15 15:48:50;;;;;;;0.20;0.20;;;;;;;;;;5033718;28;20049;-63
2022/11/15 15:51:20;;;;;;;;;;;;;;;;;;5013979;28;20049;-64
2022/11/15 15:53:52;;;;;;;1.48;0.30;;;;;;;;;;4990223;28;19929;-63
2022/11/15 15:56:22;;;;;;;0.40;0.20;;;;;;;;;;4974371;28;20062;-63
2022/11/15 15:58:52;;;;;;;0.55;0.30;;;;;;;;;;4974164;28;20053;-64
2022/11/15 16:01:24;;;;;;;2.53;0.38;;;;;;;;;;4951514;28;20058;-63
2022/11/15 16:03:55;;;;;;;3.67;0.70;;;;;;;;;;4935558;28;20055;-64
2022/11/15 16:06:37;;;;;;;0.50;0.30;;;;;;;;;;4912595;29;20052;-63
2022/11/15 16:09:13;;;;;;;0.30;0.30;;;;;;;;;;4914006;29;20477;-64
2022/11/15 16:11:46;;;;;;;2.40;0.35;;;;;;;;;;4894603;29;20061;-62
2022/11/15 16:14:16;;;;;;;;;;;;;;;;;;4908797;29;20083;-62
2022/11/15 16:16:46;;;;;;;3.90;1.88;;;;;;;;;;4894367;29;20458;-62
2022/11/15 16:19:16;;;;;;;0.57;0.30;;;;;;;;;;4894695;29;20059;-62
2022/11/15 16:21:46;;;;;;;6.43;1.60;;;;;;;;;;4899568;29;20067;-61
2022/11/15 16:24:16;;;;;;;0.77;0.20;;;;;;;;;;4926134;29;20091;-61
2022/11/15 16:26:48;;;;;;;3.70;0.30;;;;;;;;;;4884533;29;20063;-62
2022/11/15 16:29:18;;;;;;;1.52;0.20;;;;;;;;;;4932051;29;20052;-61
2022/11/15 16:31:49;;;;;;;0.30;0.20;;;;;;;;;;4956456;28;20556;-63
2022/11/15 16:34:19;;;;;;;1.27;0.40;;;;;;;;;;4938678;28;20542;-60
2022/11/15 16:36:50;;;;;;;1.13;0.30;;;;;;;;;;4954643;28;20062;-60
2022/11/15 16:39:20;;;;;;;1.10;0.30;;;;;;;;;;4954190;28;20054;-59
2022/11/15 16:41:50;;;;;;;0.32;0.22;;;;;;;;;;4986569;28;20519;-62
2022/11/15 16:44:20;;;;;;;0.52;0.20;;;;;;;;;;4982504;28;20655;-60
2022/11/15 16:46:51;;;;;;;1.77;0.20;;;;;;;;;;4987520;28;20054;-61
2022/11/15 16:49:22;;;;;;;0.65;0.45;;;;;;;;;;4989663;28;20473;-60